Time;durP1;ratioP1;P1;durP2;ratioP2;P2;SDS_P1;SDS_P2;PMS_P1;PMS_P2;Temp;Humidity;BMP_temperature;BMP_pressure;BME280_temperature;BME280_humidity;BME280_pressure;Samples;Min_cycle;Max_cycle;Signal;HPM_P1;HPM_P2
2023/01/09 00:00:03;;;;;;;78.43;38.95;;;;;;;7.44;100.00;99456.09;4979692;28;20511;-87
2023/01/09 00:02:30;;;;;;;80.13;40.05;;;;;;;7.48;100.00;99461.88;4997019;28;20046;-85
2023/01/09 00:04:58;;;;;;;74.32;39.15;;;;;;;7.43;100.00;99472.06;4996990;28;20042;-87
2023/01/09 00:07:24;;;;;;;73.18;38.40;;;;;;;7.35;100.00;99465.03;4996648;28;20089;-87
2023/01/09 00:09:50;;;;;;;79.90;40.13;;;;;;;7.38;100.00;99466.50;4979645;28;20035;-88
2023/01/09 00:12:15;;;;;;;85.60;41.95;;;;;;;7.36;100.00;99485.09;4979821;28;20030;-85
2023/01/09 00:14:41;;;;;;;80.45;42.08;;;;;;;7.44;100.00;99482.47;4983895;28;20098;-84
2023/01/09 00:17:06;;;;;;;85.68;43.05;;;;;;;7.34;100.00;99481.00;4999391;28;20045;-83
2023/01/09 00:19:32;;;;;;;92.95;43.70;;;;;;;7.35;100.00;99477.38;5012127;28;20053;-86
2023/01/09 00:21:57;;;;;;;90.25;43.70;;;;;;;7.36;100.00;99500.13;5011471;28;20424;-85
2023/01/09 00:24:22;;;;;;;96.75;47.90;;;;;;;7.32;100.00;99498.81;5011483;28;20049;-86
2023/01/09 00:26:48;;;;;;;99.25;46.38;;;;;;;7.31;100.00;99503.25;5014261;28;20039;-92
2023/01/09 00:29:15;;;;;;;114.13;52.05;;;;;;;7.32;100.00;99491.72;4996626;28;20034;-88
2023/01/09 00:31:41;;;;;;;117.78;54.00;;;;;;;7.34;100.00;99476.56;5002702;28;20452;-89
2023/01/09 00:34:09;;;;;;;130.57;57.35;;;;;;;7.29;100.00;99474.41;4977195;28;20038;-86
2023/01/09 00:36:34;;;;;;;129.52;55.33;;;;;;;7.19;100.00;99462.41;4994457;28;20047;-85
2023/01/09 00:39:00;;;;;;;130.80;57.35;;;;;;;7.21;100.00;99460.44;5008484;28;20038;-88
2023/01/09 00:41:34;;;;;;;120.25;55.55;;;;;;;7.35;100.00;99475.56;5003118;28;20176;-86
2023/01/09 00:44:06;;;;;;;116.00;52.45;;;;;;;7.32;100.00;99481.19;4992521;28;20038;-89
2023/01/09 00:46:38;;;;;;;115.80;54.07;;;;;;;7.32;100.00;99477.72;5002014;28;20034;-88
2023/01/09 00:49:05;;;;;;;117.53;55.03;;;;;;;7.23;100.00;99482.97;5000981;28;20274;-90
2023/01/09 00:51:31;;;;;;;118.78;55.28;;;;;;;7.12;100.00;99474.59;5000123;28;20040;-84
2023/01/09 00:53:57;;;;;;;130.27;59.10;;;;;;;7.08;100.00;99462.75;5001096;28;20057;-86
2023/01/09 00:56:22;;;;;;;117.45;55.95;;;;;;;7.10;100.00;99463.38;5001012;28;20516;-87
2023/01/09 00:58:52;;;;;;;127.22;56.78;;;;;;;7.15;100.00;99475.09;5001826;28;20042;-85
2023/01/09 01:01:17;;;;;;;129.85;57.88;;;;;;;7.10;100.00;99471.28;4999729;28;20022;-87
2023/01/09 01:03:46;;;;;;;128.95;57.35;;;;;;;7.11;100.00;99473.78;5000997;28;20074;-88
2023/01/09 01:08:55;;;;;;;126.90;58.10;;;;;;;7.08;100.00;99473.28;4998543;28;20042;-82
2023/01/09 01:11:22;;;;;;;122.88;56.05;;;;;;;7.16;100.00;99471.44;4999075;28;20030;-89
2023/01/09 01:13:47;;;;;;;128.07;56.95;;;;;;;7.10;100.00;99458.13;5001215;28;20484;-88
2023/01/09 01:16:17;;;;;;;125.53;56.30;;;;;;;7.10;100.00;99458.13;4983196;28;20118;-85
2023/01/09 01:18:42;;;;;;;116.30;54.88;;;;;;;7.16;100.00;99468.00;5000223;28;20366;-84
2023/01/09 01:21:10;;;;;;;125.40;57.75;;;;;;;7.10;100.00;99473.94;5001331;28;20113;-86
2023/01/09 01:23:37;;;;;;;118.60;55.33;;;;;;;7.08;100.00;99481.19;4982432;28;20096;-84
2023/01/09 01:26:08;;;;;;;123.80;57.75;;;;;;;7.12;100.00;99469.34;4998224;28;20486;-86
2023/01/09 01:28:34;;;;;;;122.47;55.92;;;;;;;7.04;100.00;99464.88;4982754;28;20070;-89
2023/01/09 01:31:01;;;;;;;124.03;54.83;;;;;;;7.05;100.00;99461.28;4981667;28;20096;-89
2023/01/09 01:33:45;;;;;;;114.60;53.00;;;;;;;7.10;100.00;99451.03;5002791;28;20061;-87
2023/01/09 01:36:11;;;;;;;91.22;44.10;;;;;;;7.07;100.00;99447.91;4992951;28;20062;-86
2023/01/09 01:38:36;;;;;;;94.78;43.72;;;;;;;7.08;100.00;99454.84;5014223;28;20370;-84
2023/01/09 01:41:02;;;;;;;91.90;43.47;;;;;;;7.02;100.00;99450.25;5001918;28;20093;-84
2023/01/09 01:43:48;;;;;;;86.13;40.92;;;;;;;7.05;100.00;99457.81;4999393;28;20053;-85
2023/01/09 01:46:16;;;;;;;77.15;36.28;;;;;;;7.05;100.00;99449.91;5000517;28;20034;-88
2023/01/09 01:48:44;;;;;;;68.35;34.50;;;;;;;7.04;100.00;99441.19;5000056;28;20039;-87
2023/01/09 01:51:10;;;;;;;59.97;29.98;;;;;;;7.08;100.00;99439.88;5001962;28;20035;-85
2023/01/09 01:53:42;;;;;;;58.33;29.80;;;;;;;7.10;100.00;99437.03;4986142;28;20038;-85
2023/01/09 01:56:23;;;;;;;53.88;27.13;;;;;;;7.13;100.00;99439.34;4982261;28;20117;-88
2023/01/09 01:58:48;;;;;;;47.90;23.35;;;;;;;7.17;100.00;99438.03;4988130;28;20043;-86
2023/01/09 02:01:15;;;;;;;37.55;20.83;;;;;;;7.13;100.00;99426.16;4986842;28;20045;-88
2023/01/09 02:03:42;;;;;;;40.03;20.20;;;;;;;7.14;100.00;99427.81;5002113;28;20034;-89
2023/01/09 02:06:09;;;;;;;34.33;18.73;;;;;;;7.12;100.00;99421.91;4984856;28;20068;-89
2023/01/09 02:08:35;;;;;;;35.53;19.33;;;;;;;7.18;100.00;99402.78;5002680;28;20026;-91
2023/01/09 02:11:03;;;;;;;30.00;16.85;;;;;;;7.13;100.00;99398.00;4968645;28;20080;-89
2023/01/09 02:13:29;;;;;;;26.45;15.48;;;;;;;7.11;100.00;99396.53;4986389;28;20034;-90
2023/01/09 02:16:27;;;;;;;25.92;14.60;;;;;;;7.17;100.00;99380.88;5002732;28;20042;-89
2023/01/09 02:19:05;;;;;;;27.98;14.65;;;;;;;7.14;100.00;99390.94;4999984;28;20034;-88
2023/01/09 02:21:49;;;;;;;26.30;14.95;;;;;;;7.09;100.00;99399.34;4999702;28;20573;-84
2023/01/09 02:24:32;;;;;;;24.92;13.68;;;;;;;7.13;100.00;99405.91;5002529;28;20193;-85
2023/01/09 02:27:49;;;;;;;22.13;12.57;;;;;;;7.08;100.00;99402.16;4998874;28;20042;-87
2023/01/09 02:30:39;;;;;;;20.33;12.55;;;;;;;7.07;100.00;99385.50;4965758;28;20050;-88
2023/01/09 02:33:38;;;;;;;19.38;11.95;;;;;;;7.15;100.00;99374.97;5014143;28;20452;-86
2023/01/09 02:36:27;;;;;;;21.85;13.38;;;;;;;7.15;100.00;99372.34;4980543;28;20041;-85
2023/01/09 02:39:12;;;;;;;19.23;12.10;;;;;;;7.12;100.00;99395.56;4997918;28;20045;-85
2023/01/09 02:42:06;;;;;;;20.00;11.35;;;;;;;7.14;100.00;99389.13;4999194;28;20042;-86
2023/01/09 02:44:36;;;;;;;15.88;10.80;;;;;;;7.16;100.00;99389.78;4999277;28;20543;-89
2023/01/09 02:47:04;;;;;;;21.13;12.27;;;;;;;7.06;100.00;99368.06;4999531;28;20045;-86
2023/01/09 02:49:32;;;;;;;16.10;10.02;;;;;;;7.15;100.00;99368.88;4981094;28;20034;-87
2023/01/09 02:52:06;;;;;;;14.20;9.82;;;;;;;7.09;100.00;99374.81;4999480;28;20031;-85
2023/01/09 02:54:44;;;;;;;13.30;8.93;;;;;;;7.11;100.00;99364.94;5001841;28;20441;-87
2023/01/09 02:57:36;;;;;;;13.88;9.43;;;;;;;7.15;100.00;99356.53;4999697;28;20053;-87
2023/01/09 03:00:32;;;;;;;13.02;9.05;;;;;;;7.11;100.00;99346.50;4958998;28;20066;-88
2023/01/09 03:03:31;;;;;;;14.70;9.10;;;;;;;7.12;100.00;99337.59;4999926;28;20045;-87
2023/01/09 03:06:31;;;;;;;15.20;9.00;;;;;;;7.18;100.00;99334.28;4960568;28;20065;-89
2023/01/09 03:09:06;;;;;;;12.63;8.48;;;;;;;7.16;100.00;99330.97;4999341;28;20085;-86
2023/01/09 03:11:40;;;;;;;13.70;8.73;;;;;;;7.12;100.00;99332.34;4987990;28;20034;-85
2023/01/09 03:14:12;;;;;;;12.68;8.65;;;;;;;7.11;100.00;99335.94;5005837;28;20529;-83
2023/01/09 03:16:38;;;;;;;16.60;9.68;;;;;;;7.27;100.00;99331.44;5004210;28;20042;-84
2023/01/09 03:19:12;;;;;;;14.85;8.75;;;;;;;7.10;100.00;99331.66;5001582;28;20454;-87
2023/01/09 03:21:39;;;;;;;13.85;8.85;;;;;;;7.02;100.00;99326.44;4982109;28;20042;-87
2023/01/09 03:24:07;;;;;;;12.68;8.27;;;;;;;7.06;100.00;99319.84;5003245;28;20072;-85
2023/01/09 03:26:33;;;;;;;14.40;8.48;;;;;;;7.04;100.00;99317.38;4988780;28;20038;-88
2023/01/09 03:28:59;;;;;;;12.52;8.35;;;;;;;7.05;100.00;99329.56;4982926;28;20034;-84
2023/01/09 03:31:24;;;;;;;14.93;8.45;;;;;;;7.15;100.00;99327.56;4999812;28;20030;-88
2023/01/09 03:33:50;;;;;;;14.60;8.68;;;;;;;7.10;100.00;99329.03;5013460;28;20057;-84
2023/01/09 03:36:17;;;;;;;15.32;8.63;;;;;;;7.08;100.00;99331.03;4999826;28;20053;-83
2023/01/09 03:38:43;;;;;;;12.65;8.15;;;;;;;7.22;100.00;99341.66;5006214;28;20062;-86
2023/01/09 03:41:09;;;;;;;12.93;7.78;;;;;;;7.21;100.00;99344.50;4981038;28;20089;-86
2023/01/09 03:43:35;;;;;;;13.52;7.80;;;;;;;7.29;100.00;99333.94;4980150;28;20448;-87
2023/01/09 03:46:00;;;;;;;11.70;7.68;;;;;;;7.33;100.00;99337.84;4997910;28;20038;-86
2023/01/09 03:48:26;;;;;;;11.65;7.75;;;;;;;7.33;100.00;99337.84;4980876;28;20630;-87
2023/01/09 03:50:52;;;;;;;15.85;7.80;;;;;;;7.34;100.00;99336.88;4968675;28;20493;-88
2023/01/09 03:53:19;;;;;;;10.65;7.68;;;;;;;7.27;100.00;99339.34;5002359;28;20098;-86
2023/01/09 03:55:47;;;;;;;10.55;7.57;;;;;;;7.29;100.00;99339.22;5003321;28;20526;-87
2023/01/09 03:58:14;;;;;;;15.60;7.82;;;;;;;7.30;100.00;99346.09;4992613;28;20103;-88
2023/01/09 04:00:40;;;;;;;12.63;7.70;;;;;;;7.29;100.00;99349.75;4999769;28;20084;-86
2023/01/09 04:03:07;;;;;;;10.52;7.43;;;;;;;7.17;100.00;99343.16;5018405;28;20018;-88
2023/01/09 04:05:33;;;;;;;10.98;8.15;;;;;;;7.28;100.00;99335.75;4982581;28;20042;-85
2023/01/09 04:08:01;;;;;;;11.95;7.22;;;;;;;7.28;100.00;99334.91;4995869;28;20034;-84
2023/01/09 04:10:27;;;;;;;11.98;7.47;;;;;;;7.26;100.00;99334.25;4994739;28;20045;-83
2023/01/09 04:12:53;;;;;;;8.98;6.85;;;;;;;7.34;100.00;99344.78;5009230;28;20038;-85
2023/01/09 04:15:18;;;;;;;8.38;6.70;;;;;;;7.29;100.00;99332.09;5014070;28;20035;-86
2023/01/09 04:17:44;;;;;;;9.80;6.20;;;;;;;7.38;100.00;99329.44;4995925;28;20042;-84
2023/01/09 04:20:10;;;;;;;11.20;6.72;;;;;;;7.33;100.00;99319.41;5013896;28;20041;-86
2023/01/09 04:22:38;;;;;;;8.20;6.28;;;;;;;7.39;100.00;99310.00;4998087;28;20102;-85
2023/01/09 04:25:04;;;;;;;10.52;5.80;;;;;;;7.58;100.00;99291.97;5015693;28;20038;-84
2023/01/09 04:27:34;;;;;;;8.32;5.80;;;;;;;7.51;100.00;99280.44;4999381;28;20065;-86
2023/01/09 04:29:59;;;;;;;9.63;6.50;;;;;;;7.43;100.00;99285.75;4983681;28;20034;-86
2023/01/09 04:32:26;;;;;;;7.95;5.97;;;;;;;7.50;100.00;99296.44;5019618;28;20040;-86
2023/01/09 04:34:52;;;;;;;8.35;6.40;;;;;;;7.46;100.00;99298.59;5004009;28;20043;-85
2023/01/09 04:37:18;;;;;;;8.93;6.13;;;;;;;7.44;100.00;99303.22;5004104;28;20030;-85
2023/01/09 04:39:44;;;;;;;8.50;6.18;;;;;;;7.45;100.00;99299.59;5021018;28;20033;-88
2023/01/09 04:42:10;;;;;;;7.72;5.95;;;;;;;7.42;100.00;99299.94;5020892;28;20026;-88
2023/01/09 04:44:37;;;;;;;9.57;6.75;;;;;;;7.50;100.00;99302.53;5020731;28;20030;-87
2023/01/09 04:47:03;;;;;;;8.50;6.55;;;;;;;7.50;100.00;99315.72;5020971;28;20022;-88
2023/01/09 04:49:31;;;;;;;8.77;6.15;;;;;;;7.54;100.00;99314.38;5017902;28;20038;-84
2023/01/09 04:51:56;;;;;;;8.40;6.28;;;;;;;7.44;100.00;99313.75;5016907;28;20094;-86
2023/01/09 04:54:22;;;;;;;7.85;6.07;;;;;;;7.44;100.00;99307.66;5008936;28;20045;-87
2023/01/09 04:56:48;;;;;;;7.88;5.72;;;;;;;7.43;100.00;99312.09;5006124;28;20057;-91
2023/01/09 04:59:14;;;;;;;7.88;6.07;;;;;;;7.32;100.00;99314.31;5007204;23;20047;-90
2023/01/09 05:01:40;;;;;;;7.85;6.05;;;;;;;7.23;100.00;99335.41;4966622;28;20094;-87
2023/01/09 05:04:08;;;;;;;9.82;6.50;;;;;;;7.22;100.00;99343.50;4965136;28;20438;-88
2023/01/09 05:06:34;;;;;;;7.53;5.93;;;;;;;7.16;100.00;99341.53;4965443;28;20087;-89
2023/01/09 05:09:00;;;;;;;13.30;6.35;;;;;;;7.15;100.00;99350.44;4965929;29;20486;-91
2023/01/09 05:11:28;;;;;;;9.43;5.97;;;;;;;7.14;100.00;99330.34;4965340;29;20453;-88
2023/01/09 05:13:54;;;;;;;8.65;6.07;;;;;;;7.10;100.00;99294.78;4965209;28;20043;-91
2023/01/09 05:16:20;;;;;;;7.30;6.13;;;;;;;7.09;100.00;99279.97;4964807;28;20039;-88
2023/01/09 05:18:46;;;;;;;8.05;6.43;;;;;;;7.11;100.00;99296.44;4961417;29;20035;-85
2023/01/09 05:21:15;;;;;;;9.07;6.72;;;;;;;7.15;100.00;99308.28;4961663;28;20513;-86
2023/01/09 05:23:40;;;;;;;8.20;6.40;;;;;;;7.26;100.00;99313.16;4961310;28;20035;-86
2023/01/09 05:26:06;;;;;;;8.30;6.30;;;;;;;7.19;100.00;99309.59;4961181;28;20046;-90
2023/01/09 05:28:32;;;;;;;7.40;6.32;;;;;;;7.16;100.00;99320.44;4960915;29;20055;-87
2023/01/09 05:30:58;;;;;;;11.80;6.28;;;;;;;7.09;100.00;99327.41;4963895;28;20443;-89
2023/01/09 05:33:23;;;;;;;8.82;6.20;;;;;;;7.09;100.00;99327.41;4964866;29;20063;-88
2023/01/09 05:35:49;;;;;;;9.10;6.50;;;;;;;7.13;100.00;99331.31;4964555;28;20139;-89
2023/01/09 05:38:15;;;;;;;8.63;6.47;;;;;;;7.09;100.00;99325.56;4962726;28;20039;-85
2023/01/09 05:40:40;;;;;;;9.00;7.05;;;;;;;7.06;100.00;99351.44;4962742;28;20070;-90
2023/01/09 05:43:06;;;;;;;8.95;6.63;;;;;;;7.03;100.00;99336.78;4962593;28;20122;-89
2023/01/09 05:45:34;;;;;;;8.88;7.05;;;;;;;7.06;100.00;99296.13;4962822;28;20043;-89
2023/01/09 05:48:07;;;;;;;10.40;6.90;;;;;;;7.25;100.00;99325.53;4966973;28;20035;-88
2023/01/09 05:50:35;;;;;;;8.80;6.47;;;;;;;7.14;100.00;99317.16;4953591;29;20043;-84
2023/01/09 05:53:05;;;;;;;9.10;7.28;;;;;;;7.12;100.00;99338.44;4965917;29;20035;-85
2023/01/09 05:55:32;;;;;;;10.23;7.03;;;;;;;7.28;100.00;99327.84;4966987;28;20041;-88
2023/01/09 05:57:57;;;;;;;9.30;7.18;;;;;;;7.16;100.00;99346.78;4961759;28;20035;-89
2023/01/09 06:00:23;;;;;;;10.18;7.57;;;;;;;7.17;100.00;99344.00;4961382;28;20046;-89
2023/01/09 06:02:48;;;;;;;11.85;7.57;;;;;;;7.16;100.00;99315.16;4962498;29;20054;-86
2023/01/09 06:05:17;;;;;;;11.55;8.10;;;;;;;7.18;100.00;99331.66;4964496;28;20117;-88
2023/01/09 06:07:42;;;;;;;14.07;9.25;;;;;;;7.20;100.00;99340.19;4969907;28;20041;-88
2023/01/09 06:10:12;;;;;;;18.13;11.15;;;;;;;7.20;100.00;99333.13;4952261;29;20063;-90
2023/01/09 06:12:49;;;;;;;19.50;11.90;;;;;;;7.21;100.00;99340.03;4966085;28;20035;-88
2023/01/09 06:15:17;;;;;;;19.90;13.35;;;;;;;7.27;100.00;99333.25;4972752;29;20035;-91
2023/01/09 06:17:43;;;;;;;20.52;13.48;;;;;;;7.22;100.00;99315.31;4971597;29;20047;-88
2023/01/09 06:20:09;;;;;;;21.27;14.05;;;;;;;7.16;100.00;99307.28;4968916;28;20038;-89
2023/01/09 06:22:35;;;;;;;24.95;14.88;;;;;;;7.16;100.00;99299.38;4963093;28;20039;-88
2023/01/09 06:25:01;;;;;;;25.08;16.17;;;;;;;7.15;100.00;99303.00;4959723;28;20114;-90
2023/01/09 06:27:29;;;;;;;26.77;16.75;;;;;;;7.16;100.00;99294.09;4963505;28;20059;-92
2023/01/09 06:29:55;;;;;;;32.10;18.02;;;;;;;7.11;100.00;99291.16;4959918;28;20031;-90
2023/01/09 06:32:20;;;;;;;28.30;17.35;;;;;;;7.15;100.00;99276.66;4960526;29;20031;-87
2023/01/09 06:34:46;;;;;;;31.00;18.65;;;;;;;7.22;100.00;99282.91;4960773;28;20067;-86
2023/01/09 06:37:11;;;;;;;27.27;17.77;;;;;;;7.27;100.00;99309.53;4961573;28;20042;-86
2023/01/09 06:39:37;;;;;;;32.78;17.98;;;;;;;7.18;100.00;99310.56;4958780;28;20031;-89
2023/01/09 06:42:03;;;;;;;28.73;18.27;;;;;;;7.10;100.00;99310.59;4944185;29;20106;-87
2023/01/09 06:44:29;;;;;;;30.17;18.55;;;;;;;7.09;100.00;99319.50;4962096;29;20043;-90
2023/01/09 06:46:54;;;;;;;29.88;18.63;;;;;;;7.09;100.00;99304.50;4960906;28;20106;-89
2023/01/09 06:49:23;;;;;;;31.40;18.30;;;;;;;7.05;100.00;99292.66;4960207;29;20066;-89
2023/01/09 06:51:50;;;;;;;32.95;18.80;;;;;;;7.08;100.00;99291.50;4961648;28;20039;-87
2023/01/09 06:54:17;;;;;;;32.58;19.90;;;;;;;7.13;100.00;99312.88;4961390;28;20035;-86
2023/01/09 06:56:46;;;;;;;28.90;18.50;;;;;;;7.11;100.00;99306.97;4958760;28;20027;-87
2023/01/09 06:59:11;;;;;;;31.85;18.80;;;;;;;7.12;100.00;99292.81;4958999;29;20031;-87
2023/01/09 07:01:40;;;;;;;32.08;17.92;;;;;;;7.12;100.00;99311.25;4959328;28;20501;-88
2023/01/09 07:04:07;;;;;;;29.92;18.65;;;;;;;7.19;100.00;99310.38;4957228;29;20046;-88
2023/01/09 07:06:33;;;;;;;30.02;19.02;;;;;;;7.18;100.00;99297.41;4957101;28;20481;-88
2023/01/09 07:08:58;;;;;;;33.75;20.10;;;;;;;7.18;100.00;99298.22;4956251;29;20066;-89
2023/01/09 07:11:24;;;;;;;33.65;20.17;;;;;;;7.23;100.00;99306.44;4956889;28;20045;-88
2023/01/09 07:13:49;;;;;;;32.28;19.65;;;;;;;7.33;100.00;99308.84;4958514;28;20118;-85
2023/01/09 07:16:15;;;;;;;32.92;19.75;;;;;;;7.29;100.00;99307.59;4957513;28;20027;-87
2023/01/09 07:18:40;;;;;;;31.40;19.35;;;;;;;7.26;100.00;99311.34;4940168;29;20529;-85
2023/01/09 07:21:07;;;;;;;35.95;19.88;;;;;;;7.39;100.00;99323.97;4957322;28;20126;-85
2023/01/09 07:23:33;;;;;;;37.65;22.30;;;;;;;7.37;100.00;99306.69;4956585;28;20043;-90
2023/01/09 07:25:59;;;;;;;35.30;21.70;;;;;;;7.39;100.00;99315.28;4957891;28;20046;-87
2023/01/09 07:28:24;;;;;;;36.20;21.83;;;;;;;7.30;100.00;99317.09;4958202;28;20035;-88
2023/01/09 07:30:50;;;;;;;39.53;22.83;;;;;;;7.27;100.00;99326.19;4957106;29;20044;-87
2023/01/09 07:33:16;;;;;;;36.42;22.63;;;;;;;7.37;100.00;99328.63;4957209;29;20068;-88
2023/01/09 07:35:41;;;;;;;38.08;21.63;;;;;;;7.39;100.00;99331.88;4941258;29;20054;-86
2023/01/09 07:38:06;;;;;;;39.80;23.05;;;;;;;7.28;100.00;99330.47;4957162;29;20028;-89
2023/01/09 07:40:32;;;;;;;43.65;24.70;;;;;;;7.19;100.00;99320.13;4972237;28;20042;-86
2023/01/09 07:42:58;;;;;;;42.63;25.30;;;;;;;7.17;100.00;99324.72;4961358;28;20498;-88
2023/01/09 07:45:27;;;;;;;42.78;24.42;;;;;;;7.21;100.00;99318.97;4956905;28;20043;-88
2023/01/09 07:47:53;;;;;;;45.45;24.92;;;;;;;7.27;100.00;99328.00;4956644;28;20042;-86
2023/01/09 07:50:19;;;;;;;43.53;24.83;;;;;;;7.37;100.00;99322.53;4956405;28;20031;-85
2023/01/09 07:52:45;;;;;;;45.33;25.55;;;;;;;7.36;100.00;99318.25;4957865;28;20031;-83
2023/01/09 07:55:13;;;;;;;46.75;25.77;;;;;;;7.23;100.00;99302.97;4958622;29;20046;-87
2023/01/09 07:57:39;;;;;;;45.55;25.98;;;;;;;7.19;100.00;99305.13;4958433;28;20039;-87
2023/01/09 08:00:06;;;;;;;46.17;25.63;;;;;;;7.14;100.00;99302.19;4956477;28;20047;-88
2023/01/09 08:02:36;;;;;;;48.38;28.17;;;;;;;7.11;100.00;99304.34;4958680;28;20032;-86
2023/01/09 08:05:02;;;;;;;52.72;28.77;;;;;;;7.12;100.00;99306.81;4957188;28;20058;-88
2023/01/09 08:07:28;;;;;;;47.70;26.40;;;;;;;7.18;100.00;99305.31;4957696;28;20036;-87
2023/01/09 08:09:54;;;;;;;50.20;25.98;;;;;;;7.24;100.00;99301.97;4958238;28;20137;-87
2023/01/09 08:12:19;;;;;;;45.50;25.13;;;;;;;7.26;100.00;99310.53;4958293;28;20163;-89
2023/01/09 08:14:48;;;;;;;46.83;26.50;;;;;;;7.31;100.00;99313.50;4958177;28;20045;-87
2023/01/09 08:17:16;;;;;;;44.88;24.13;;;;;;;7.41;100.00;99313.28;4962408;28;20039;-87
2023/01/09 08:19:42;;;;;;;37.85;23.08;;;;;;;7.38;100.00;99313.63;4961155;28;20035;-86
2023/01/09 08:22:08;;;;;;;46.60;24.85;;;;;;;7.27;100.00;99312.19;4963706;28;20035;-86
2023/01/09 08:24:35;;;;;;;40.22;23.38;;;;;;;7.45;100.00;99320.69;4968630;28;20046;-88
2023/01/09 08:27:01;;;;;;;43.03;23.75;;;;;;;7.44;100.00;99303.22;4977011;28;20047;-86
2023/01/09 08:29:27;;;;;;;39.13;22.40;;;;;;;7.41;100.00;99303.56;4951859;29;20049;-86
2023/01/09 08:31:53;;;;;;;44.35;24.05;;;;;;;7.38;100.00;99305.72;4958948;29;20106;-87
2023/01/09 08:34:19;;;;;;;46.72;25.17;;;;;;;7.42;100.00;99305.22;4956873;28;20039;-85
2023/01/09 08:36:44;;;;;;;43.97;23.70;;;;;;;7.54;100.00;99324.91;4961222;28;20069;-86
2023/01/09 08:39:10;;;;;;;47.50;25.25;;;;;;;7.46;100.00;99332.84;4960898;28;20019;-88
2023/01/09 08:47:07;;;;;;;42.10;23.73;;;;;;;7.59;100.00;99333.13;4961273;29;20034;-86
2023/01/09 08:49:34;;;;;;;44.55;23.98;;;;;;;7.58;100.00;99334.13;4943830;29;20045;-87
2023/01/09 08:52:00;;;;;;;45.08;24.00;;;;;;;7.58;100.00;99338.59;4960107;28;20054;-89
2023/01/09 08:54:27;;;;;;;47.55;23.35;;;;;;;7.66;100.00;99335.88;4959334;28;20062;-88
2023/01/09 08:56:52;;;;;;;46.10;24.38;;;;;;;7.87;100.00;99325.56;4960888;28;20039;-89
2023/01/09 08:59:18;;;;;;;44.35;23.63;;;;;;;7.86;100.00;99336.28;4961472;28;20372;-87
2023/01/09 09:01:43;;;;;;;43.72;24.15;;;;;;;7.70;100.00;99337.19;4960257;29;20046;-89
2023/01/09 09:04:09;;;;;;;45.03;24.80;;;;;;;7.62;100.00;99332.78;4967333;28;20109;-87
2023/01/09 09:06:35;;;;;;;42.95;24.55;;;;;;;7.58;100.00;99334.13;4967220;28;20115;-88
2023/01/09 09:09:02;;;;;;;50.33;25.00;;;;;;;7.61;100.00;99335.59;4961019;28;20074;-89
2023/01/09 09:11:29;;;;;;;46.65;24.45;;;;;;;7.59;100.00;99335.75;4960843;28;20035;-86
2023/01/09 09:13:55;;;;;;;46.20;24.95;;;;;;;7.57;100.00;99329.84;4961926;29;20138;-90
2023/01/09 09:16:25;;;;;;;46.67;23.20;;;;;;;7.66;100.00;99328.81;4960149;29;20040;-87
2023/01/09 09:18:51;;;;;;;45.53;24.48;;;;;;;7.55;100.00;99310.75;4960622;28;20031;-89
2023/01/09 09:21:17;;;;;;;44.50;24.95;;;;;;;7.59;100.00;99319.94;4960898;28;20119;-88
2023/01/09 09:23:43;;;;;;;45.30;24.30;;;;;;;7.59;100.00;99319.16;4943148;29;20035;-86
2023/01/09 09:26:12;;;;;;;47.10;25.88;;;;;;;7.66;100.00;99307.72;4959944;29;20045;-88
2023/01/09 09:28:40;;;;;;;48.35;25.48;;;;;;;7.76;100.00;99313.59;4961158;28;20039;-90
2023/01/09 09:31:06;;;;;;;47.33;25.23;;;;;;;7.64;100.00;99309.72;4942747;29;20027;-87
2023/01/09 09:33:32;;;;;;;42.63;23.15;;;;;;;7.56;100.00;99306.28;4959372;29;20035;-85
2023/01/09 09:36:03;;;;;;;42.08;23.45;;;;;;;7.54;100.00;99303.00;4965537;28;20035;-90
2023/01/09 09:38:30;;;;;;;42.47;24.75;;;;;;;7.58;100.00;99318.31;4964818;28;20122;-86
2023/01/09 09:47:25;;;;;;;39.80;23.23;;;;;;;7.87;100.00;99325.56;4966947;28;20035;-85
2023/01/09 09:50:26;;;;;;;39.05;22.35;;;;;;;8.05;100.00;99325.31;4971734;29;20043;-84
2023/01/09 09:53:20;;;;;;;37.42;22.27;;;;;;;8.10;100.00;99330.88;4973813;28;20057;-82
2023/01/09 09:55:48;;;;;;;34.15;21.60;;;;;;;8.14;100.00;99332.16;4961540;28;20082;-83
2023/01/09 09:58:40;;;;;;;26.42;17.60;;;;;;;8.22;100.00;99334.72;4964451;28;20039;-82
2023/01/09 10:01:08;;;;;;;26.80;17.55;;;;;;;8.26;100.00;99325.47;4970687;28;20035;-87
2023/01/09 10:03:38;;;;;;;25.15;15.70;;;;;;;8.24;100.00;99333.56;4964527;28;20122;-86
2023/01/09 10:06:36;;;;;;;22.30;13.43;;;;;;;8.19;100.00;99332.44;4950326;28;20030;-84
2023/01/09 10:09:14;;;;;;;16.90;12.00;;;;;;;8.09;100.00;99331.84;4977122;28;20065;-85
2023/01/09 10:12:07;;;;;;;17.05;11.95;;;;;;;8.03;100.00;99324.63;4978005;28;20085;-87
2023/01/09 10:14:33;;;;;;;14.02;10.25;;;;;;;7.99;100.00;99320.69;4977578;28;20126;-83
2023/01/09 10:17:51;;;;;;;16.63;10.90;;;;;;;8.04;100.00;99326.28;4977672;28;20089;-83
2023/01/09 10:20:22;;;;;;;13.85;10.27;;;;;;;8.11;100.00;99316.69;4919588;29;20112;-83
2023/01/09 10:23:30;;;;;;;19.45;9.30;;;;;;;8.11;100.00;99321.97;4917848;29;20103;-84
2023/01/09 10:26:09;;;;;;;16.92;9.45;;;;;;;8.13;100.00;99312.88;4896018;29;20517;-85
2023/01/09 10:29:07;;;;;;;11.50;8.82;;;;;;;8.12;100.00;99315.69;4918026;29;20052;-84
2023/01/09 10:31:42;;;;;;;13.82;9.45;;;;;;;8.28;100.00;99311.16;4928026;29;20420;-83
2023/01/09 10:34:10;;;;;;;11.25;8.45;;;;;;;8.18;100.00;99302.63;4934522;28;20046;-81
2023/01/09 10:37:03;;;;;;;18.20;8.98;;;;;;;8.25;100.00;99310.66;4977223;28;20027;-91
2023/01/09 10:39:51;;;;;;;15.95;10.48;;;;;;;8.20;100.00;99302.44;4978617;28;20418;-87
2023/01/09 10:42:41;;;;;;;15.73;10.57;;;;;;;8.16;100.00;99303.78;4979187;28;20031;-85
2023/01/09 10:45:20;;;;;;;14.48;10.60;;;;;;;8.22;100.00;99298.59;4982692;28;20089;-83
2023/01/09 10:48:12;;;;;;;15.65;11.68;;;;;;;8.14;100.00;99296.03;4984512;28;20043;-82
2023/01/09 10:50:44;;;;;;;16.30;10.10;;;;;;;8.24;100.00;99293.16;4985702;28;20053;-86
2023/01/09 10:53:39;;;;;;;15.85;10.90;;;;;;;8.34;100.00;99298.22;4980152;28;20050;-84
2023/01/09 10:56:14;;;;;;;18.63;10.00;;;;;;;8.44;100.00;99302.28;4975435;28;20053;-88
2023/01/09 10:58:42;;;;;;;15.50;10.27;;;;;;;8.56;100.00;99295.56;4980565;28;20054;-86
2023/01/09 11:01:08;;;;;;;14.50;9.75;;;;;;;8.63;100.00;99296.47;4980673;28;20038;-87
2023/01/09 11:03:33;;;;;;;14.40;9.85;;;;;;;8.71;100.00;99296.41;4976594;28;20034;-86
2023/01/09 11:06:00;;;;;;;14.68;9.95;;;;;;;8.79;100.00;99280.47;4977020;28;20039;-83
2023/01/09 11:08:29;;;;;;;17.35;10.35;;;;;;;8.93;100.00;99288.59;4975320;28;20534;-86
2023/01/09 11:10:57;;;;;;;15.20;8.50;;;;;;;8.94;100.00;99282.31;4976473;28;20058;-85
2023/01/09 11:13:33;;;;;;;12.15;8.88;;;;;;;8.99;100.00;99266.72;4975943;28;20038;-83
2023/01/09 11:16:20;;;;;;;10.77;7.75;;;;;;;8.94;100.00;99263.81;4978135;28;20390;-86
2023/01/09 11:18:52;;;;;;;11.80;7.50;;;;;;;9.00;100.00;99265.72;4978718;28;20105;-86
2023/01/09 11:21:31;;;;;;;9.63;6.03;;;;;;;9.12;100.00;99264.25;4976466;28;20101;-86
2023/01/09 11:24:17;;;;;;;10.70;7.15;;;;;;;9.13;100.00;99265.91;4977886;28;20130;-85
2023/01/09 11:26:44;;;;;;;8.52;5.80;;;;;;;9.24;100.00;99249.59;4970230;28;20042;-85
2023/01/09 11:29:13;;;;;;;9.95;6.18;;;;;;;9.15;100.00;99250.66;4977233;28;20066;-86
2023/01/09 11:31:40;;;;;;;11.27;5.93;;;;;;;9.23;100.00;99247.94;4976342;28;20035;-87
2023/01/09 11:34:14;;;;;;;8.48;5.53;;;;;;;9.19;100.00;99244.00;4976704;28;20026;-84
2023/01/09 11:36:40;;;;;;;8.85;5.63;;;;;;;9.32;100.00;99236.25;4976645;28;20027;-88
2023/01/09 11:39:18;;;;;;;9.35;5.05;;;;;;;9.30;100.00;99240.91;4976468;28;20023;-87
2023/01/09 11:41:43;;;;;;;9.85;5.18;;;;;;;9.38;100.00;99243.44;4976074;28;20031;-89
2023/01/09 11:44:14;;;;;;;6.93;4.40;;;;;;;9.34;100.00;99236.91;4975033;28;20038;-86
2023/01/09 11:46:42;;;;;;;7.72;4.63;;;;;;;9.36;100.00;99224.28;4975625;28;20410;-87
2023/01/09 11:49:11;;;;;;;12.32;5.05;;;;;;;9.39;100.00;99229.22;4976271;28;21217;-87